sensor_id;sensor_type;location;lat;lon;timestamp;pressure;altitude;pressure_sealevel;temperature;humidity
40850;BME280;26571;41.610;25.380;2023-03-23T00:01:29;98310.66;;;10.84;nan
40850;BME280;26571;41.610;25.380;2023-03-23T00:04:02;98309.38;;;10.64;nan
40850;BME280;26571;41.610;25.380;2023-03-23T00:06:27;98305.47;;;10.52;nan
40850;BME280;26571;41.610;25.380;2023-03-23T00:08:57;98304.16;;;10.48;nan
40850;BME280;26571;41.610;25.380;2023-03-23T00:11:25;98297.91;;;10.49;nan
40850;BME280;26571;41.610;25.380;2023-03-23T00:13:52;98301.84;;;10.53;nan
40850;BME280;26571;41.610;25.380;2023-03-23T00:16:18;98298.72;;;10.57;nan
40850;BME280;26571;41.610;25.380;2023-03-23T00:18:47;98298.53;;;10.67;nan
40850;BME280;26571;41.610;25.380;2023-03-23T00:21:14;98293.75;;;10.71;nan
40850;BME280;26571;41.610;25.380;2023-03-23T00:23:40;98287.78;;;10.77;nan
40850;BME280;26571;41.610;25.380;2023-03-23T00:26:05;98286.28;;;10.82;nan
40850;BME280;26571;41.610;25.380;2023-03-23T00:28:31;98292.03;;;10.86;nan
40850;BME280;26571;41.610;25.380;2023-03-23T00:33:24;98287.91;;;10.83;nan
40850;BME280;26571;41.610;25.380;2023-03-23T00:35:51;98289.22;;;10.87;nan
40850;BME280;26571;41.610;25.380;2023-03-23T00:38:20;98283.63;;;10.91;nan
40850;BME280;26571;41.610;25.380;2023-03-23T00:40:45;98290.53;;;10.92;nan
40850;BME280;26571;41.610;25.380;2023-03-23T00:43:13;98286.59;;;10.87;nan
40850;BME280;26571;41.610;25.380;2023-03-23T00:45:38;98286.44;;;10.89;nan
40850;BME280;26571;41.610;25.380;2023-03-23T00:48:04;98276.72;;;10.90;nan
40850;BME280;26571;41.610;25.380;2023-03-23T00:50:30;98285.22;;;11.00;nan
40850;BME280;26571;41.610;25.380;2023-03-23T00:52:56;98281.59;;;11.01;nan
40850;BME280;26571;41.610;25.380;2023-03-23T00:55:21;98280.59;;;11.02;nan
40850;BME280;26571;41.610;25.380;2023-03-23T00:57:47;98282.59;;;11.00;nan
40850;BME280;26571;41.610;25.380;2023-03-23T01:00:15;98281.97;;;10.90;nan
40850;BME280;26571;41.610;25.380;2023-03-23T01:02:41;98273.22;;;10.97;nan
40850;BME280;26571;41.610;25.380;2023-03-23T01:05:09;98265.44;;;11.04;nan
40850;BME280;26571;41.610;25.380;2023-03-23T01:07:34;98267.25;;;11.03;nan
40850;BME280;26571;41.610;25.380;2023-03-23T01:10:00;98265.09;;;11.07;nan
40850;BME280;26571;41.610;25.380;2023-03-23T01:12:25;98261.03;;;10.96;nan
40850;BME280;26571;41.610;25.380;2023-03-23T01:14:51;98262.69;;;10.97;nan
40850;BME280;26571;41.610;25.380;2023-03-23T01:17:16;98268.41;;;11.01;nan
40850;BME280;26571;41.610;25.380;2023-03-23T01:19:41;98274.38;;;10.95;nan
40850;BME280;26571;41.610;25.380;2023-03-23T01:22:07;98270.78;;;10.87;nan
40850;BME280;26571;41.610;25.380;2023-03-23T01:24:32;98274.44;;;10.78;nan
40850;BME280;26571;41.610;25.380;2023-03-23T01:26:57;98266.13;;;10.67;nan
40850;BME280;26571;41.610;25.380;2023-03-23T01:29:26;98268.47;;;10.53;nan
40850;BME280;26571;41.610;25.380;2023-03-23T01:31:52;98266.63;;;10.54;nan
40850;BME280;26571;41.610;25.380;2023-03-23T01:34:17;98271.44;;;10.50;nan
40850;BME280;26571;41.610;25.380;2023-03-23T01:36:42;98267.31;;;10.48;nan
40850;BME280;26571;41.610;25.380;2023-03-23T01:39:08;98269.13;;;10.47;nan
40850;BME280;26571;41.610;25.380;2023-03-23T01:41:34;98252.91;;;10.35;nan
40850;BME280;26571;41.610;25.380;2023-03-23T01:46:43;98272.75;;;10.54;nan
40850;BME280;26571;41.610;25.380;2023-03-23T01:51:37;98264.47;;;10.66;nan
40850;BME280;26571;41.610;25.380;2023-03-23T01:54:06;98264.28;;;10.75;nan
40850;BME280;26571;41.610;25.380;2023-03-23T01:56:35;98260.31;;;10.79;nan
40850;BME280;26571;41.610;25.380;2023-03-23T01:59:03;98263.59;;;10.81;nan
40850;BME280;26571;41.610;25.380;2023-03-23T02:01:28;98262.41;;;10.84;nan
40850;BME280;26571;41.610;25.380;2023-03-23T02:03:54;98262.59;;;10.82;nan
40850;BME280;26571;41.610;25.380;2023-03-23T02:06:21;98260.16;;;10.73;nan
40850;BME280;26571;41.610;25.380;2023-03-23T02:08:47;98262.63;;;10.74;nan
40850;BME280;26571;41.610;25.380;2023-03-23T02:11:17;98260.00;;;10.74;nan
40850;BME280;26571;41.610;25.380;2023-03-23T02:13:43;98261.34;;;10.70;nan
40850;BME280;26571;41.610;25.380;2023-03-23T02:16:23;98266.25;;;10.73;nan
40850;BME280;26571;41.610;25.380;2023-03-23T02:26:51;98274.22;;;10.57;nan
40850;BME280;26571;41.610;25.380;2023-03-23T02:37:13;98276.53;;;10.44;nan
40850;BME280;26571;41.610;25.380;2023-03-23T02:39:47;98280.66;;;10.46;nan
40850;BME280;26571;41.610;25.380;2023-03-23T02:42:15;98284.44;;;10.52;nan
40850;BME280;26571;41.610;25.380;2023-03-23T02:44:42;98275.72;;;10.51;nan
40850;BME280;26571;41.610;25.380;2023-03-23T02:47:11;98288.69;;;10.53;nan
40850;BME280;26571;41.610;25.380;2023-03-23T02:49:38;98280.47;;;10.56;nan
40850;BME280;26571;41.610;25.380;2023-03-23T02:52:09;98295.56;;;10.62;nan
40850;BME280;26571;41.610;25.380;2023-03-23T02:54:37;98290.63;;;10.67;nan
40850;BME280;26571;41.610;25.380;2023-03-23T02:57:03;98291.13;;;10.71;nan
40850;BME280;26571;41.610;25.380;2023-03-23T02:59:29;98294.22;;;10.74;nan
40850;BME280;26571;41.610;25.380;2023-03-23T03:01:57;98287.66;;;10.70;nan
40850;BME280;26571;41.610;25.380;2023-03-23T03:04:25;98296.88;;;10.74;nan
40850;BME280;26571;41.610;25.380;2023-03-23T03:07:11;98289.28;;;10.71;nan
40850;BME280;26571;41.610;25.380;2023-03-23T03:12:07;98302.97;;;10.67;nan
40850;BME280;26571;41.610;25.380;2023-03-23T03:14:37;98298.84;;;10.64;nan
40850;BME280;26571;41.610;25.380;2023-03-23T03:17:06;98297.25;;;10.55;nan
40850;BME280;26571;41.610;25.380;2023-03-23T03:19:43;98295.94;;;10.51;nan
40850;BME280;26571;41.610;25.380;2023-03-23T03:22:11;98296.28;;;10.48;nan
40850;BME280;26571;41.610;25.380;2023-03-23T03:24:37;98301.22;;;10.43;nan
40850;BME280;26571;41.610;25.380;2023-03-23T03:27:03;98300.22;;;10.44;nan
40850;BME280;26571;41.610;25.380;2023-03-23T03:29:35;98302.88;;;10.44;nan
40850;BME280;26571;41.610;25.380;2023-03-23T03:32:01;98305.19;;;10.39;nan
40850;BME280;26571;41.610;25.380;2023-03-23T03:34:29;98304.84;;;10.42;nan
40850;BME280;26571;41.610;25.380;2023-03-23T03:36:57;98294.66;;;10.39;nan
40850;BME280;26571;41.610;25.380;2023-03-23T03:39:24;98300.09;;;10.45;nan
40850;BME280;26571;41.610;25.380;2023-03-23T03:41:49;98301.72;;;10.46;nan
40850;BME280;26571;41.610;25.380;2023-03-23T03:44:15;98310.59;;;10.45;nan
40850;BME280;26571;41.610;25.380;2023-03-23T03:46:40;98301.22;;;10.43;nan
40850;BME280;26571;41.610;25.380;2023-03-23T03:49:07;98307.47;;;10.42;nan
40850;BME280;26571;41.610;25.380;2023-03-23T03:51:34;98306.81;;;10.48;nan
40850;BME280;26571;41.610;25.380;2023-03-23T03:54:00;98298.91;;;10.48;nan
40850;BME280;26571;41.610;25.380;2023-03-23T03:56:25;98301.84;;;10.53;nan
40850;BME280;26571;41.610;25.380;2023-03-23T03:58:51;98303.50;;;10.54;nan
40850;BME280;26571;41.610;25.380;2023-03-23T04:01:17;98300.53;;;10.49;nan
40850;BME280;26571;41.610;25.380;2023-03-23T04:03:43;98304.97;;;10.56;nan
40850;BME280;26571;41.610;25.380;2023-03-23T04:06:08;98305.16;;;10.55;nan
40850;BME280;26571;41.610;25.380;2023-03-23T04:08:34;98314.38;;;10.51;nan
40850;BME280;26571;41.610;25.380;2023-03-23T04:11:00;98314.00;;;10.54;nan
40850;BME280;26571;41.610;25.380;2023-03-23T04:13:26;98305.66;;;10.50;nan
40850;BME280;26571;41.610;25.380;2023-03-23T04:15:51;98305.16;;;10.55;nan
40850;BME280;26571;41.610;25.380;2023-03-23T04:18:17;98310.72;;;10.60;nan
40850;BME280;26571;41.610;25.380;2023-03-23T04:20:44;98306.63;;;10.57;nan
40850;BME280;26571;41.610;25.380;2023-03-23T04:23:12;98309.72;;;10.61;nan
40850;BME280;26571;41.610;25.380;2023-03-23T04:25:37;98311.38;;;10.62;nan
40850;BME280;26571;41.610;25.380;2023-03-23T04:28:04;98314.69;;;10.56;nan
40850;BME280;26571;41.610;25.380;2023-03-23T04:30:29;98313.38;;;10.60;nan
40850;BME280;26571;41.610;25.380;2023-03-23T04:32:56;98313.69;;;10.57;nan
40850;BME280;26571;41.610;25.380;2023-03-23T04:35:24;98316.31;;;10.65;nan
40850;BME280;26571;41.610;25.380;2023-03-23T04:37:52;98323.41;;;10.56;nan
40850;BME280;26571;41.610;25.380;2023-03-23T04:40:19;98323.53;;;10.63;nan
40850;BME280;26571;41.610;25.380;2023-03-23T04:42:44;98318.00;;;10.50;nan
40850;BME280;26571;41.610;25.380;2023-03-23T04:45:17;98321.59;;;10.49;nan
40850;BME280;26571;41.610;25.380;2023-03-23T04:47:47;98329.47;;;10.57;nan
40850;BME280;26571;41.610;25.380;2023-03-23T04:50:18;98328.81;;;10.63;nan
40850;BME280;26571;41.610;25.380;2023-03-23T04:52:43;98335.06;;;10.62;nan
40850;BME280;26571;41.610;25.380;2023-03-23T04:55:10;98334.06;;;10.63;nan
40850;BME280;26571;41.610;25.380;2023-03-23T04:57:35;98340.31;;;10.62;nan
40850;BME280;26571;41.610;25.380;2023-03-23T05:00:02;98343.28;;;10.59;nan
40850;BME280;26571;41.610;25.380;2023-03-23T05:02:33;98337.88;;;10.52;nan
40850;BME280;26571;41.610;25.380;2023-03-23T05:04:59;98346.91;;;10.58;nan
40850;BME280;26571;41.610;25.380;2023-03-23T05:07:24;98351.84;;;10.61;nan
40850;BME280;26571;41.610;25.380;2023-03-23T05:09:49;98351.19;;;10.59;nan
40850;BME280;26571;41.610;25.380;2023-03-23T05:12:15;98350.69;;;10.64;nan
40850;BME280;26571;41.610;25.380;2023-03-23T05:14:41;98353.50;;;10.62;nan
40850;BME280;26571;41.610;25.380;2023-03-23T05:17:06;98356.63;;;10.66;nan
40850;BME280;26571;41.610;25.380;2023-03-23T05:19:32;98359.75;;;10.69;nan
40850;BME280;26571;41.610;25.380;2023-03-23T05:21:58;98357.63;;;10.65;nan
40850;BME280;26571;41.610;25.380;2023-03-23T05:24:28;98343.97;;;10.53;nan
40850;BME280;26571;41.610;25.380;2023-03-23T05:26:56;98365.81;;;10.70;nan
40850;BME280;26571;41.610;25.380;2023-03-23T05:29:21;98364.66;;;10.72;nan
40850;BME280;26571;41.610;25.380;2023-03-23T05:31:48;98365.63;;;10.79;nan
40850;BME280;26571;41.610;25.380;2023-03-23T05:34:14;98374.19;;;10.81;nan
40850;BME280;26571;41.610;25.380;2023-03-23T05:36:41;98367.28;;;10.72;nan
40850;BME280;26571;41.610;25.380;2023-03-23T05:39:08;98373.88;;;10.68;nan
40850;BME280;26571;41.610;25.380;2023-03-23T05:41:35;98371.72;;;10.72;nan
40850;BME280;26571;41.610;25.380;2023-03-23T05:44:00;98373.53;;;10.79;nan
40850;BME280;26571;41.610;25.380;2023-03-23T05:46:25;98382.56;;;10.77;nan
40850;BME280;26571;41.610;25.380;2023-03-23T05:48:51;98378.94;;;10.78;nan
40850;BME280;26571;41.610;25.380;2023-03-23T05:51:17;98378.44;;;10.91;nan
40850;BME280;26571;41.610;25.380;2023-03-23T05:53:43;98387.97;;;10.92;nan
40850;BME280;26571;41.610;25.380;2023-03-23T05:56:09;98386.97;;;10.93;nan
40850;BME280;26571;41.610;25.380;2023-03-23T05:58:34;98388.28;;;10.97;nan
40850;BME280;26571;41.610;25.380;2023-03-23T06:00:59;98394.56;;;10.87;nan
40850;BME280;26571;41.610;25.380;2023-03-23T06:03:24;98393.88;;;10.94;nan
40850;BME280;26571;41.610;25.380;2023-03-23T06:05:50;98395.00;;;11.07;nan
40850;BME280;26571;41.610;25.380;2023-03-23T06:08:15;98397.28;;;11.10;nan
40850;BME280;26571;41.610;25.380;2023-03-23T06:10:40;98395.47;;;11.11;nan
40850;BME280;26571;41.610;25.380;2023-03-23T06:13:06;98398.13;;;11.03;nan
40850;BME280;26571;41.610;25.380;2023-03-23T06:15:31;98400.44;;;11.06;nan
40850;BME280;26571;41.610;25.380;2023-03-23T06:18:03;98405.84;;;11.12;nan
40850;BME280;26571;41.610;25.380;2023-03-23T06:20:28;98396.09;;;11.21;nan
40850;BME280;26571;41.610;25.380;2023-03-23T06:22:54;98397.72;;;11.22;nan
40850;BME280;26571;41.610;25.380;2023-03-23T06:25:19;98402.31;;;11.28;nan
40850;BME280;26571;41.610;25.380;2023-03-23T06:27:44;98399.97;;;11.33;nan
40850;BME280;26571;41.610;25.380;2023-03-23T06:30:11;98396.38;;;11.34;nan
40850;BME280;26571;41.610;25.380;2023-03-23T06:32:37;98400.84;;;11.34;nan
40850;BME280;26571;41.610;25.380;2023-03-23T06:35:02;98399.66;;;11.36;nan
40850;BME280;26571;41.610;25.380;2023-03-23T06:37:28;98406.56;;;11.37;nan
40850;BME280;26571;41.610;25.380;2023-03-23T06:39:54;98402.91;;;11.38;nan
40850;BME280;26571;41.610;25.380;2023-03-23T06:42:19;98407.59;;;11.28;nan
40850;BME280;26571;41.610;25.380;2023-03-23T06:44:44;98404.63;;;11.31;nan
40850;BME280;26571;41.610;25.380;2023-03-23T06:47:10;98411.53;;;11.32;nan
40850;BME280;26571;41.610;25.380;2023-03-23T06:49:35;98413.53;;;11.22;nan
40850;BME280;26571;41.610;25.380;2023-03-23T06:52:01;98416.16;;;11.30;nan
40850;BME280;26571;41.610;25.380;2023-03-23T06:54:28;98417.47;;;11.26;nan
40850;BME280;26571;41.610;25.380;2023-03-23T06:56:53;98416.34;;;11.21;nan
40850;BME280;26571;41.610;25.380;2023-03-23T06:59:18;98416.22;;;11.14;nan
40850;BME280;26571;41.610;25.380;2023-03-23T07:01:44;98422.94;;;11.17;nan
40850;BME280;26571;41.610;25.380;2023-03-23T07:04:11;98420.13;;;11.26;nan
40850;BME280;26571;41.610;25.380;2023-03-23T07:06:36;98416.78;;;11.41;nan
40850;BME280;26571;41.610;25.380;2023-03-23T07:09:03;98416.38;;;11.52;nan
40850;BME280;26571;41.610;25.380;2023-03-23T07:11:29;98408.03;;;11.71;nan
40850;BME280;26571;41.610;25.380;2023-03-23T07:13:54;98416.38;;;12.52;nan
40850;BME280;26571;41.610;25.380;2023-03-23T07:16:19;98410.63;;;13.66;nan
40850;BME280;26571;41.610;25.380;2023-03-23T07:18:44;98412.81;;;14.20;nan
40850;BME280;26571;41.610;25.380;2023-03-23T07:21:10;98413.31;;;14.31;nan
40850;BME280;26571;41.610;25.380;2023-03-23T07:23:35;98418.56;;;14.24;nan
40850;BME280;26571;41.610;25.380;2023-03-23T07:26:01;98418.38;;;14.04;nan
40850;BME280;26571;41.610;25.380;2023-03-23T07:28:26;98412.50;;;13.87;nan
40850;BME280;26571;41.610;25.380;2023-03-23T07:30:51;98417.00;;;13.72;nan
40850;BME280;26571;41.610;25.380;2023-03-23T07:33:17;98420.81;;;13.48;nan
40850;BME280;26571;41.610;25.380;2023-03-23T07:35:42;98416.16;;;13.20;nan
40850;BME280;26571;41.610;25.380;2023-03-23T07:38:07;98431.00;;;13.07;nan
40850;BME280;26571;41.610;25.380;2023-03-23T07:40:33;98427.53;;;12.91;nan
40850;BME280;26571;41.610;25.380;2023-03-23T07:42:59;98429.34;;;12.76;nan
40850;BME280;26571;41.610;25.380;2023-03-23T07:45:25;98432.66;;;12.78;nan
40850;BME280;26571;41.610;25.380;2023-03-23T07:47:51;98427.53;;;12.91;nan
40850;BME280;26571;41.610;25.380;2023-03-23T07:50:18;98427.19;;;12.94;nan
40850;BME280;26571;41.610;25.380;2023-03-23T07:52:46;98436.72;;;12.81;nan
40850;BME280;26571;41.610;25.380;2023-03-23T07:55:11;98437.81;;;12.72;nan
40850;BME280;26571;41.610;25.380;2023-03-23T07:57:42;98443.56;;;12.75;nan
40850;BME280;26571;41.610;25.380;2023-03-23T08:00:08;98439.72;;;12.78;nan
40850;BME280;26571;41.610;25.380;2023-03-23T08:02:47;98450.13;;;12.79;nan
40850;BME280;26571;41.610;25.380;2023-03-23T08:05:13;98447.00;;;12.61;nan
40850;BME280;26571;41.610;25.380;2023-03-23T08:07:40;98456.63;;;12.54;nan
40850;BME280;26571;41.610;25.380;2023-03-23T08:10:06;98454.81;;;12.54;nan
40850;BME280;26571;41.610;25.380;2023-03-23T08:12:35;98450.97;;;12.57;nan
40850;BME280;26571;41.610;25.380;2023-03-23T08:15:00;98461.75;;;12.70;nan
40850;BME280;26571;41.610;25.380;2023-03-23T08:17:26;98460.97;;;12.84;nan
40850;BME280;26571;41.610;25.380;2023-03-23T08:19:51;98461.66;;;12.63;nan
40850;BME280;26571;41.610;25.380;2023-03-23T08:22:17;98458.84;;;12.42;nan
40850;BME280;26571;41.610;25.380;2023-03-23T08:24:42;98463.09;;;12.28;nan
40850;BME280;26571;41.610;25.380;2023-03-23T08:27:08;98465.03;;;12.34;nan
40850;BME280;26571;41.610;25.380;2023-03-23T08:29:34;98469.53;;;12.49;nan
40850;BME280;26571;41.610;25.380;2023-03-23T08:31:59;98464.84;;;12.59;nan
40850;BME280;26571;41.610;25.380;2023-03-23T08:34:26;98466.94;;;12.63;nan
40850;BME280;26571;41.610;25.380;2023-03-23T08:36:52;98464.13;;;12.65;nan
40850;BME280;26571;41.610;25.380;2023-03-23T08:39:18;98475.44;;;12.74;nan
40850;BME280;26571;41.610;25.380;2023-03-23T08:41:43;98471.25;;;12.79;nan
40850;BME280;26571;41.610;25.380;2023-03-23T08:44:09;98474.09;;;12.92;nan
40850;BME280;26571;41.610;25.380;2023-03-23T08:46:34;98466.09;;;13.01;nan
40850;BME280;26571;41.610;25.380;2023-03-23T08:49:00;98464.81;;;13.11;nan
40850;BME280;26571;41.610;25.380;2023-03-23T08:51:25;98472.78;;;13.26;nan
40850;BME280;26571;41.610;25.380;2023-03-23T08:53:51;98475.53;;;13.33;nan
40850;BME280;26571;41.610;25.380;2023-03-23T08:56:17;98474.97;;;13.37;nan
40850;BME280;26571;41.610;25.380;2023-03-23T08:58:42;98479.06;;;13.40;nan
40850;BME280;26571;41.610;25.380;2023-03-23T09:01:08;98476.69;;;13.45;nan
40850;BME280;26571;41.610;25.380;2023-03-23T09:03:34;98479.63;;;13.35;nan
40850;BME280;26571;41.610;25.380;2023-03-23T09:06:03;98477.94;;;13.05;nan
40850;BME280;26571;41.610;25.380;2023-03-23T09:08:29;98476.72;;;12.92;nan
40850;BME280;26571;41.610;25.380;2023-03-23T09:10:58;98481.44;;;12.82;nan
40850;BME280;26571;41.610;25.380;2023-03-23T09:13:23;98480.59;;;12.67;nan
40850;BME280;26571;41.610;25.380;2023-03-23T09:15:49;98479.03;;;12.58;nan
40850;BME280;26571;41.610;25.380;2023-03-23T09:18:15;98479.69;;;12.60;nan
40850;BME280;26571;41.610;25.380;2023-03-23T09:20:40;98482.72;;;12.72;nan
40850;BME280;26571;41.610;25.380;2023-03-23T09:23:07;98483.72;;;12.71;nan
40850;BME280;26571;41.610;25.380;2023-03-23T09:25:33;98482.84;;;12.78;nan
40850;BME280;26571;41.610;25.380;2023-03-23T09:27:58;98478.56;;;12.92;nan
40850;BME280;26571;41.610;25.380;2023-03-23T09:30:25;98473.19;;;13.00;nan
40850;BME280;26571;41.610;25.380;2023-03-23T09:32:51;98480.69;;;13.11;nan
40850;BME280;26571;41.610;25.380;2023-03-23T09:35:17;98475.66;;;13.02;nan
40850;BME280;26571;41.610;25.380;2023-03-23T09:37:46;98468.94;;;13.14;nan
40850;BME280;26571;41.610;25.380;2023-03-23T09:40:16;98471.34;;;12.86;nan
40850;BME280;26571;41.610;25.380;2023-03-23T09:45:31;98474.22;;;12.61;nan
40850;BME280;26571;41.610;25.380;2023-03-23T09:50:32;98470.69;;;12.69;nan
40850;BME280;26571;41.610;25.380;2023-03-23T09:53:14;98471.03;;;12.66;nan
40850;BME280;26571;41.610;25.380;2023-03-23T09:55:41;98469.97;;;12.75;nan
40850;BME280;26571;41.610;25.380;2023-03-23T09:58:21;98470.06;;;12.82;nan
40850;BME280;26571;41.610;25.380;2023-03-23T10:03:20;98461.03;;;13.43;nan
40850;BME280;26571;41.610;25.380;2023-03-23T10:08:16;98460.09;;;13.36;nan
40850;BME280;26571;41.610;25.380;2023-03-23T10:16:10;98460.25;;;14.01;nan
40850;BME280;26571;41.610;25.380;2023-03-23T10:18:47;98466.63;;;13.85;nan
40850;BME280;26571;41.610;25.380;2023-03-23T10:21:16;98467.38;;;13.64;nan
40850;BME280;26571;41.610;25.380;2023-03-23T10:28:43;98449.16;;;13.90;nan
40850;BME280;26571;41.610;25.380;2023-03-23T10:31:31;98464.75;;;13.64;nan
40850;BME280;26571;41.610;25.380;2023-03-23T10:33:59;98464.03;;;13.40;nan
40850;BME280;26571;41.610;25.380;2023-03-23T10:36:33;98459.84;;;13.31;nan
40850;BME280;26571;41.610;25.380;2023-03-23T10:39:01;98455.91;;;13.27;nan
40850;BME280;26571;41.610;25.380;2023-03-23T10:41:28;98459.47;;;13.34;nan
40850;BME280;26571;41.610;25.380;2023-03-23T10:43:54;98455.19;;;13.18;nan
40850;BME280;26571;41.610;25.380;2023-03-23T10:48:45;98453.81;;;13.08;nan
40850;BME280;26571;41.610;25.380;2023-03-23T10:51:15;98450.19;;;13.24;nan
40850;BME280;26571;41.610;25.380;2023-03-23T10:53:45;98447.41;;;13.17;nan
40850;BME280;26571;41.610;25.380;2023-03-23T10:56:23;98442.88;;;13.26;nan
40850;BME280;26571;41.610;25.380;2023-03-23T10:58:48;98440.59;;;13.37;nan
40850;BME280;26571;41.610;25.380;2023-03-23T11:01:14;98434.69;;;13.35;nan
40850;BME280;26571;41.610;25.380;2023-03-23T11:03:45;98431.81;;;13.52;nan
40850;BME280;26571;41.610;25.380;2023-03-23T11:06:23;98439.72;;;13.66;nan
40850;BME280;26571;41.610;25.380;2023-03-23T11:11:18;98425.78;;;13.73;nan
40850;BME280;26571;41.610;25.380;2023-03-23T11:13:46;98428.97;;;13.68;nan
40850;BME280;26571;41.610;25.380;2023-03-23T11:18:49;98427.28;;;13.31;nan
40850;BME280;26571;41.610;25.380;2023-03-23T11:21:14;98425.38;;;13.39;nan
40850;BME280;26571;41.610;25.380;2023-03-23T11:23:41;98425.94;;;13.35;nan
40850;BME280;26571;41.610;25.380;2023-03-23T11:26:20;98414.72;;;13.33;nan
40850;BME280;26571;41.610;25.380;2023-03-23T11:29:08;98418.06;;;13.41;nan
40850;BME280;26571;41.610;25.380;2023-03-23T11:31:36;98423.56;;;13.40;nan
40850;BME280;26571;41.610;25.380;2023-03-23T11:34:04;98411.34;;;13.39;nan
40850;BME280;26571;41.610;25.380;2023-03-23T11:36:33;98414.06;;;13.45;nan
40850;BME280;26571;41.610;25.380;2023-03-23T11:39:00;98400.56;;;13.40;nan
40850;BME280;26571;41.610;25.380;2023-03-23T11:41:32;98401.91;;;13.51;nan
40850;BME280;26571;41.610;25.380;2023-03-23T11:43:58;98395.50;;;13.60;nan
40850;BME280;26571;41.610;25.380;2023-03-23T11:46:33;98402.59;;;13.75;nan
40850;BME280;26571;41.610;25.380;2023-03-23T11:49:01;98396.78;;;13.86;nan
40850;BME280;26571;41.610;25.380;2023-03-23T11:51:33;98398.25;;;13.88;nan
40850;BME280;26571;41.610;25.380;2023-03-23T11:56:27;98395.81;;;13.51;nan
40850;BME280;26571;41.610;25.380;2023-03-23T11:58:54;98391.44;;;13.58;nan
40850;BME280;26571;41.610;25.380;2023-03-23T12:16:40;98383.69;;;13.41;nan
40850;BME280;26571;41.610;25.380;2023-03-23T12:21:39;98382.31;;;13.45;nan
40850;BME280;26571;41.610;25.380;2023-03-23T12:34:58;98390.75;;;14.13;nan
40850;BME280;26571;41.610;25.380;2023-03-23T12:37:32;98394.34;;;14.27;nan
40850;BME280;26571;41.610;25.380;2023-03-23T12:52:32;98390.56;;;14.92;nan
40850;BME280;26571;41.610;25.380;2023-03-23T12:55:02;98395.66;;;14.87;nan
40850;BME280;26571;41.610;25.380;2023-03-23T12:57:37;98389.44;;;14.73;nan
40850;BME280;26571;41.610;25.380;2023-03-23T13:00:19;98391.16;;;14.60;nan
40850;BME280;26571;41.610;25.380;2023-03-23T13:03:02;98393.03;;;14.66;nan
40850;BME280;26571;41.610;25.380;2023-03-23T13:05:40;98382.19;;;14.61;nan
40850;BME280;26571;41.610;25.380;2023-03-23T13:08:12;98383.09;;;14.68;nan
40850;BME280;26571;41.610;25.380;2023-03-23T13:10:41;98380.19;;;14.63;nan
40850;BME280;26571;41.610;25.380;2023-03-23T13:13:18;98384.75;;;14.76;nan
40850;BME280;26571;41.610;25.380;2023-03-23T13:15:48;98380.19;;;14.63;nan
40850;BME280;26571;41.610;25.380;2023-03-23T13:18:24;98383.75;;;14.48;nan
40850;BME280;26571;41.610;25.380;2023-03-23T13:23:26;98375.19;;;14.25;nan
40850;BME280;26571;41.610;25.380;2023-03-23T13:28:28;98370.13;;;14.30;nan
40850;BME280;26571;41.610;25.380;2023-03-23T13:33:20;98375.97;;;14.47;nan
40850;BME280;26571;41.610;25.380;2023-03-23T13:35:45;98371.59;;;14.61;nan
40850;BME280;26571;41.610;25.380;2023-03-23T13:38:18;98377.56;;;14.69;nan
40850;BME280;26571;41.610;25.380;2023-03-23T13:40:44;98372.59;;;14.88;nan
40850;BME280;26571;41.610;25.380;2023-03-23T13:43:10;98374.25;;;14.95;nan
40850;BME280;26571;41.610;25.380;2023-03-23T13:45:46;98377.59;;;15.11;nan
40850;BME280;26571;41.610;25.380;2023-03-23T13:50:48;98376.44;;;15.20;nan
40850;BME280;26571;41.610;25.380;2023-03-23T13:53:20;98374.81;;;14.56;nan
40850;BME280;26571;41.610;25.380;2023-03-23T13:55:50;98373.41;;;14.54;nan
40850;BME280;26571;41.610;25.380;2023-03-23T13:58:24;98373.41;;;14.32;nan
40850;BME280;26571;41.610;25.380;2023-03-23T14:01:01;98371.22;;;14.14;nan
40850;BME280;26571;41.610;25.380;2023-03-23T14:03:33;98379.28;;;14.06;nan
40850;BME280;26571;41.610;25.380;2023-03-23T14:18:25;98381.25;;;13.40;nan
40850;BME280;26571;41.610;25.380;2023-03-23T14:20:51;98372.22;;;13.34;nan
40850;BME280;26571;41.610;25.380;2023-03-23T14:23:17;98373.59;;;13.30;nan
40850;BME280;26571;41.610;25.380;2023-03-23T14:25:43;98375.63;;;13.28;nan
40850;BME280;26571;41.610;25.380;2023-03-23T14:28:27;98378.63;;;13.25;nan
40850;BME280;26571;41.610;25.380;2023-03-23T14:30:52;98385.19;;;13.29;nan
40850;BME280;26571;41.610;25.380;2023-03-23T14:33:18;98388.19;;;13.26;nan
40850;BME280;26571;41.610;25.380;2023-03-23T14:35:45;98387.44;;;13.32;nan
40850;BME280;26571;41.610;25.380;2023-03-23T14:38:15;98391.28;;;13.15;nan
40850;BME280;26571;41.610;25.380;2023-03-23T14:40:41;98387.81;;;13.00;nan
40850;BME280;26571;41.610;25.380;2023-03-23T14:43:07;98388.19;;;12.97;nan
40850;BME280;26571;41.610;25.380;2023-03-23T14:45:34;98398.66;;;12.90;nan
40850;BME280;26571;41.610;25.380;2023-03-23T14:48:00;98393.66;;;12.80;nan
40850;BME280;26571;41.610;25.380;2023-03-23T14:55:41;98397.56;;;12.84;nan
40850;BME280;26571;41.610;25.380;2023-03-23T14:58:07;98403.84;;;12.83;nan
40850;BME280;26571;41.610;25.380;2023-03-23T15:00:37;98399.00;;;12.72;nan
40850;BME280;26571;41.610;25.380;2023-03-23T15:03:05;98402.44;;;12.58;nan
40850;BME280;26571;41.610;25.380;2023-03-23T15:05:33;98410.06;;;12.53;nan
40850;BME280;26571;41.610;25.380;2023-03-23T15:08:05;98413.72;;;12.52;nan
40850;BME280;26571;41.610;25.380;2023-03-23T15:10:31;98412.34;;;12.41;nan
40850;BME280;26571;41.610;25.380;2023-03-23T15:12:57;98417.00;;;12.39;nan
40850;BME280;26571;41.610;25.380;2023-03-23T15:15:30;98412.97;;;12.43;nan
40850;BME280;26571;41.610;25.380;2023-03-23T15:17:56;98413.34;;;12.40;nan